Moriarty, NM

12:36 PM MDT on October 21, 2014 (GMT -0600)
Moriarty | Change Station
CLOSE
Current Station
Airport
Location: Moriarty,
Elevation: 6198 ft
Nearby Weather Stations

Elev 6198 ft 34.99 °N, 106.01 °W | Updated 21 minutes ago

Partly Cloudy
Partly Cloudy
62 °F
Feels Like 62 °F
N
10
Wind Variable Wind from South

Today
High -- | Low -- °F
--% Chance of Precip.
Yesterday
High -- | Low -- °F
Precip. -- in
7:15 AM 6:21 PM
Waning Crescent, 5% visible
Pressure 30.20 in
Visibility 10.0 miles
Clouds Clear
Dew Point 46 °F
Humidity 56%
Rainfall 0.00 in
Snow Depth Not available.
UV 7 out of 12
Pollen 3.40 out of 12
Air Quality Not available.
Flu Activity Sporadic
METAR K0E0 211815Z AUTO 19009KT 10SM CLR 17/08 A3020 RMK AO2 T01670078

More Conditions Fewer Conditions

Pressure 30.20 in
Visibility 10.0 miles
Clouds Clear
Dew Point 46 °F
Humidity 56%
Rainfall 0.00 in
Snow Depth Not available.
UV 7 out of 12
Pollen 3.40 out of 12
Air Quality Not available.
Flu Activity Sporadic
METAR K0E0 211815Z AUTO 19009KT 10SM CLR 17/08 A3020 RMK AO2 T01670078

More Conditions Fewer Conditions

Nowcast | as of 12:06 PM MDT on October 21, 2014

A few showers and a thunderstorm or two will continue to form over central New Mexico...especially over the higher terrain. Expect mostly light rain through 2 PM MDT with around a tenth of an inch but locally up to one quarter inch. Locations impacted include Vaughn...Clines Corners and Anton Chico.

×

10-Day Weather Forecast

Almanac

Astronomy

Oct. 21, 2014 Rise Set
Actual Time 7:15 AM MDT 6:21 PM MDT
Civil Twilight 6:49 AM MDT 6:47 PM MDT
Nautical Twilight 6:19 AM MDT 7:16 PM MDT
Astronomical Twilight 5:50 AM MDT 7:46 PM MDT
Moon 5:06 AM MDT 5:13 PM MDT
Length of Visible Light 11h 57m
Length of Day
11h 06m
Tomorrow will be 2m 4s shorter.
Waning Crescent, 5% of the Moon is Illuminated
Today
Waning Crescent
Oct 23
New
Oct 30
First Quarter
Nov 6
Full
Nov 14
Last Quarter

Today's Extremes

State Highs State Lows

Community

WunderPhotos

Upload Photos

1,763,738 photos uploaded!

Nearby

Snow Depth

Station Depth Elevation
Santa Fe 0 in 11445 ft
Elk Cabin 0 in 8210 ft
Wesner Springs 3 in 11120 ft
Quemazon 0 in 9500 ft
Senorita Divide #2 0 in 8600 ft

Earthquake Activity

City Distance Mag. Time & Date
No recent earthquake activity has been reported nearby.
Minimum magnitude displayed is 2.5.

Coastal Water Temperatures

Place Temperature
No Stations Reporting

Nearby Weather Stations